sensor_id;sensor_type;location;lat;lon;timestamp;temperature;humidity
24091;DHT22;12272;52.426;17.100;2022-11-18T00:02:14;3.00;99.90
24091;DHT22;12272;52.426;17.100;2022-11-18T00:07:16;3.20;99.90
24091;DHT22;12272;52.426;17.100;2022-11-18T00:12:19;2.40;99.90
24091;DHT22;12272;52.426;17.100;2022-11-18T00:17:39;1.30;99.90
24091;DHT22;12272;52.426;17.100;2022-11-18T00:22:42;2.50;99.90
24091;DHT22;12272;52.426;17.100;2022-11-18T00:27:44;1.30;99.90
24091;DHT22;12272;52.426;17.100;2022-11-18T00:32:47;2.10;99.90
24091;DHT22;12272;52.426;17.100;2022-11-18T00:37:49;2.00;99.90
24091;DHT22;12272;52.426;17.100;2022-11-18T00:42:52;1.40;99.90
24091;DHT22;12272;52.426;17.100;2022-11-18T00:47:54;1.30;99.90
24091;DHT22;12272;52.426;17.100;2022-11-18T00:52:57;1.50;99.90
24091;DHT22;12272;52.426;17.100;2022-11-18T00:57:59;1.60;99.90
24091;DHT22;12272;52.426;17.100;2022-11-18T01:03:02;6.60;99.90
24091;DHT22;12272;52.426;17.100;2022-11-18T01:08:06;2.90;99.90
24091;DHT22;12272;52.426;17.100;2022-11-18T01:13:12;1.80;99.90
24091;DHT22;12272;52.426;17.100;2022-11-18T01:18:27;1.70;99.90
24091;DHT22;12272;52.426;17.100;2022-11-18T01:23:31;3.20;99.90
24091;DHT22;12272;52.426;17.100;2022-11-18T01:28:35;3.50;99.90
24091;DHT22;12272;52.426;17.100;2022-11-18T01:33:37;3.00;99.90
24091;DHT22;12272;52.426;17.100;2022-11-18T01:38:40;1.00;99.90
24091;DHT22;12272;52.426;17.100;2022-11-18T01:43:59;0.90;99.90
24091;DHT22;12272;52.426;17.100;2022-11-18T01:49:05;1.60;99.90
24091;DHT22;12272;52.426;17.100;2022-11-18T01:54:13;0.50;99.90
24091;DHT22;12272;52.426;17.100;2022-11-18T01:59:21;0.90;99.90
24091;DHT22;12272;52.426;17.100;2022-11-18T02:04:26;-0.50;99.90
24091;DHT22;12272;52.426;17.100;2022-11-18T02:14:35;-1.40;99.90
24091;DHT22;12272;52.426;17.100;2022-11-18T02:26:08;-1.90;99.90
24091;DHT22;12272;52.426;17.100;2022-11-18T02:41:24;-2.00;99.90
24091;DHT22;12272;52.426;17.100;2022-11-18T02:46:31;-1.80;99.90
24091;DHT22;12272;52.426;17.100;2022-11-18T02:51:35;-1.40;99.90
24091;DHT22;12272;52.426;17.100;2022-11-18T02:56:38;-0.20;99.90
24091;DHT22;12272;52.426;17.100;2022-11-18T03:01:41;-0.40;99.90
24091;DHT22;12272;52.426;17.100;2022-11-18T03:06:59;-1.00;99.90
24091;DHT22;12272;52.426;17.100;2022-11-18T03:28:48;-1.40;99.90
24091;DHT22;12272;52.426;17.100;2022-11-18T03:34:02;-1.30;99.90
24091;DHT22;12272;52.426;17.100;2022-11-18T03:39:07;-1.50;99.90
24091;DHT22;12272;52.426;17.100;2022-11-18T03:49:28;-2.10;99.90
24091;DHT22;12272;52.426;17.100;2022-11-18T03:54:35;-2.20;99.90
24091;DHT22;12272;52.426;17.100;2022-11-18T03:59:50;-2.30;99.90
24091;DHT22;12272;52.426;17.100;2022-11-18T04:04:56;-1.90;99.90
24091;DHT22;12272;52.426;17.100;2022-11-18T04:15:09;-1.90;99.90
24091;DHT22;12272;52.426;17.100;2022-11-18T04:20:20;-1.90;99.90
24091;DHT22;12272;52.426;17.100;2022-11-18T04:25:22;-1.80;99.90
24091;DHT22;12272;52.426;17.100;2022-11-18T04:30:28;-1.70;99.90
24091;DHT22;12272;52.426;17.100;2022-11-18T04:35:30;-1.60;99.90
24091;DHT22;12272;52.426;17.100;2022-11-18T04:40:33;-0.80;99.90
24091;DHT22;12272;52.426;17.100;2022-11-18T04:45:35;-0.70;99.90
24091;DHT22;12272;52.426;17.100;2022-11-18T04:50:37;-0.30;99.90
24091;DHT22;12272;52.426;17.100;2022-11-18T04:55:40;0.50;99.90
24091;DHT22;12272;52.426;17.100;2022-11-18T05:00:42;1.10;99.90
24091;DHT22;12272;52.426;17.100;2022-11-18T05:05:45;0.90;99.90
24091;DHT22;12272;52.426;17.100;2022-11-18T05:10:47;2.90;99.90
24091;DHT22;12272;52.426;17.100;2022-11-18T05:15:50;0.10;99.90
24091;DHT22;12272;52.426;17.100;2022-11-18T05:20:52;-0.50;99.90
24091;DHT22;12272;52.426;17.100;2022-11-18T05:25:55;-0.40;99.90
24091;DHT22;12272;52.426;17.100;2022-11-18T05:31:12;-0.90;99.90
24091;DHT22;12272;52.426;17.100;2022-11-18T05:36:17;-1.00;99.90
24091;DHT22;12272;52.426;17.100;2022-11-18T05:41:20;-1.10;99.90
24091;DHT22;12272;52.426;17.100;2022-11-18T05:46:41;-1.20;99.90
24091;DHT22;12272;52.426;17.100;2022-11-18T05:51:43;-0.50;99.90
24091;DHT22;12272;52.426;17.100;2022-11-18T05:56:45;-0.90;99.90
24091;DHT22;12272;52.426;17.100;2022-11-18T06:07:04;-0.10;99.90
24091;DHT22;12272;52.426;17.100;2022-11-18T06:12:08;-0.70;99.90
24091;DHT22;12272;52.426;17.100;2022-11-18T06:17:21;-0.90;99.90
24091;DHT22;12272;52.426;17.100;2022-11-18T06:22:25;-0.20;99.90
24091;DHT22;12272;52.426;17.100;2022-11-18T06:27:29;1.50;99.90
24091;DHT22;12272;52.426;17.100;2022-11-18T06:32:32;0.40;99.90
24091;DHT22;12272;52.426;17.100;2022-11-18T06:37:34;-0.50;99.90
24091;DHT22;12272;52.426;17.100;2022-11-18T06:42:37;0.00;99.90
24091;DHT22;12272;52.426;17.100;2022-11-18T06:47:59;-0.10;99.90
24091;DHT22;12272;52.426;17.100;2022-11-18T06:53:02;2.20;99.90
24091;DHT22;12272;52.426;17.100;2022-11-18T06:58:05;3.10;99.90
24091;DHT22;12272;52.426;17.100;2022-11-18T07:03:07;5.10;92.80
24091;DHT22;12272;52.426;17.100;2022-11-18T07:08:10;5.00;99.90
24091;DHT22;12272;52.426;17.100;2022-11-18T07:13:12;3.50;99.90
24091;DHT22;12272;52.426;17.100;2022-11-18T07:18:15;5.60;87.20
24091;DHT22;12272;52.426;17.100;2022-11-18T07:23:19;5.80;99.90
24091;DHT22;12272;52.426;17.100;2022-11-18T07:28:22;6.90;95.00
24091;DHT22;12272;52.426;17.100;2022-11-18T07:33:24;6.30;99.10
24091;DHT22;12272;52.426;17.100;2022-11-18T07:38:27;6.80;67.40
24091;DHT22;12272;52.426;17.100;2022-11-18T07:43:29;8.50;81.20
24091;DHT22;12272;52.426;17.100;2022-11-18T07:48:31;9.80;83.20
24091;DHT22;12272;52.426;17.100;2022-11-18T07:53:34;8.80;91.10
24091;DHT22;12272;52.426;17.100;2022-11-18T07:58:37;7.10;84.50
24091;DHT22;12272;52.426;17.100;2022-11-18T08:03:40;7.90;97.90
24091;DHT22;12272;52.426;17.100;2022-11-18T08:08:43;8.70;72.90
24091;DHT22;12272;52.426;17.100;2022-11-18T08:13:46;8.70;98.50
24091;DHT22;12272;52.426;17.100;2022-11-18T08:18:49;8.20;54.30
24091;DHT22;12272;52.426;17.100;2022-11-18T08:23:55;9.00;97.30
24091;DHT22;12272;52.426;17.100;2022-11-18T08:28:58;7.40;99.90
24091;DHT22;12272;52.426;17.100;2022-11-18T08:34:03;11.00;93.50
24091;DHT22;12272;52.426;17.100;2022-11-18T08:39:07;9.60;61.00
24091;DHT22;12272;52.426;17.100;2022-11-18T08:44:12;6.30;79.60
24091;DHT22;12272;52.426;17.100;2022-11-18T08:49:15;8.20;98.70
24091;DHT22;12272;52.426;17.100;2022-11-18T08:54:18;8.10;76.20
24091;DHT22;12272;52.426;17.100;2022-11-18T08:59:20;8.10;90.90
24091;DHT22;12272;52.426;17.100;2022-11-18T09:04:23;6.60;96.30
24091;DHT22;12272;52.426;17.100;2022-11-18T09:09:26;8.40;99.10
24091;DHT22;12272;52.426;17.100;2022-11-18T09:14:29;10.10;97.30
24091;DHT22;12272;52.426;17.100;2022-11-18T09:19:51;8.20;99.90
24091;DHT22;12272;52.426;17.100;2022-11-18T09:24:54;7.00;80.90
24091;DHT22;12272;52.426;17.100;2022-11-18T09:29:56;6.20;65.70
24091;DHT22;12272;52.426;17.100;2022-11-18T09:34:59;9.00;83.90
24091;DHT22;12272;52.426;17.100;2022-11-18T09:40:01;10.20;53.40
24091;DHT22;12272;52.426;17.100;2022-11-18T09:45:24;7.00;99.90
24091;DHT22;12272;52.426;17.100;2022-11-18T09:50:29;7.80;70.20
24091;DHT22;12272;52.426;17.100;2022-11-18T09:55:52;3.30;86.20
24091;DHT22;12272;52.426;17.100;2022-11-18T10:00:55;6.00;63.90
24091;DHT22;12272;52.426;17.100;2022-11-18T10:11:30;7.70;61.90
24091;DHT22;12272;52.426;17.100;2022-11-18T10:17:06;2.90;90.00
24091;DHT22;12272;52.426;17.100;2022-11-18T10:27:49;4.00;77.00
24091;DHT22;12272;52.426;17.100;2022-11-18T10:33:03;5.10;99.90
24091;DHT22;12272;52.426;17.100;2022-11-18T10:38:19;3.80;98.10
24091;DHT22;12272;52.426;17.100;2022-11-18T10:48:42;1.60;99.90
24091;DHT22;12272;52.426;17.100;2022-11-18T10:53:45;2.80;98.80
24091;DHT22;12272;52.426;17.100;2022-11-18T10:58:49;1.20;99.90
24091;DHT22;12272;52.426;17.100;2022-11-18T11:24:58;3.10;99.90
24091;DHT22;12272;52.426;17.100;2022-11-18T11:30:19;3.20;96.90
24091;DHT22;12272;52.426;17.100;2022-11-18T11:35:26;2.20;99.90
24091;DHT22;12272;52.426;17.100;2022-11-18T11:40:43;1.80;99.90
24091;DHT22;12272;52.426;17.100;2022-11-18T11:46:22;2.70;99.90
24091;DHT22;12272;52.426;17.100;2022-11-18T11:51:57;3.50;99.90
24091;DHT22;12272;52.426;17.100;2022-11-18T12:07:56;7.40;99.90
24091;DHT22;12272;52.426;17.100;2022-11-18T12:13:09;4.60;80.00
24091;DHT22;12272;52.426;17.100;2022-11-18T12:18:18;2.20;99.90
24091;DHT22;12272;52.426;17.100;2022-11-18T12:33:44;2.30;99.90
24091;DHT22;12272;52.426;17.100;2022-11-18T12:38:47;3.50;95.40
24091;DHT22;12272;52.426;17.100;2022-11-18T12:48:53;3.20;99.90
24091;DHT22;12272;52.426;17.100;2022-11-18T12:53:56;1.70;99.90
24091;DHT22;12272;52.426;17.100;2022-11-18T12:59:00;3.30;99.30
24091;DHT22;12272;52.426;17.100;2022-11-18T13:04:17;2.10;99.90
24091;DHT22;12272;52.426;17.100;2022-11-18T13:09:23;1.30;99.90
24091;DHT22;12272;52.426;17.100;2022-11-18T13:14:32;1.50;99.90
24091;DHT22;12272;52.426;17.100;2022-11-18T13:19:55;1.80;99.90
24091;DHT22;12272;52.426;17.100;2022-11-18T13:24:58;2.10;99.90
24091;DHT22;12272;52.426;17.100;2022-11-18T13:30:04;4.60;99.90
24091;DHT22;12272;52.426;17.100;2022-11-18T13:35:17;3.80;99.90
24091;DHT22;12272;52.426;17.100;2022-11-18T13:40:30;3.20;99.90
24091;DHT22;12272;52.426;17.100;2022-11-18T13:45:33;2.30;97.60
24091;DHT22;12272;52.426;17.100;2022-11-18T13:50:46;2.00;99.90
24091;DHT22;12272;52.426;17.100;2022-11-18T13:56:05;1.30;99.10
24091;DHT22;12272;52.426;17.100;2022-11-18T14:01:23;0.90;99.90
24091;DHT22;12272;52.426;17.100;2022-11-18T14:06:38;0.90;99.90
24091;DHT22;12272;52.426;17.100;2022-11-18T14:11:56;0.30;99.90
24091;DHT22;12272;52.426;17.100;2022-11-18T14:17:23;1.20;99.90
24091;DHT22;12272;52.426;17.100;2022-11-18T14:22:28;0.80;99.90
24091;DHT22;12272;52.426;17.100;2022-11-18T14:27:37;1.90;99.90
24091;DHT22;12272;52.426;17.100;2022-11-18T14:43:56;1.20;99.60
24091;DHT22;12272;52.426;17.100;2022-11-18T14:49:03;0.20;99.90
24091;DHT22;12272;52.426;17.100;2022-11-18T14:54:10;0.00;99.90
24091;DHT22;12272;52.426;17.100;2022-11-18T14:59:14;-0.10;99.90
24091;DHT22;12272;52.426;17.100;2022-11-18T15:04:16;-0.30;99.90
24091;DHT22;12272;52.426;17.100;2022-11-18T15:09:20;-0.40;99.90
24091;DHT22;12272;52.426;17.100;2022-11-18T15:14:23;-0.50;99.90
24091;DHT22;12272;52.426;17.100;2022-11-18T15:19:25;-0.60;99.90
24091;DHT22;12272;52.426;17.100;2022-11-18T15:24:27;-0.60;99.90
24091;DHT22;12272;52.426;17.100;2022-11-18T15:29:30;-0.60;99.90
24091;DHT22;12272;52.426;17.100;2022-11-18T15:34:33;-0.60;99.90
24091;DHT22;12272;52.426;17.100;2022-11-18T15:39:35;-0.60;99.90
24091;DHT22;12272;52.426;17.100;2022-11-18T15:44:38;-0.60;99.90
24091;DHT22;12272;52.426;17.100;2022-11-18T15:49:40;-0.60;99.90
24091;DHT22;12272;52.426;17.100;2022-11-18T15:54:44;-0.60;99.90
24091;DHT22;12272;52.426;17.100;2022-11-18T15:59:47;-0.60;99.90
24091;DHT22;12272;52.426;17.100;2022-11-18T16:04:50;-0.60;99.90
24091;DHT22;12272;52.426;17.100;2022-11-18T16:09:52;-0.70;99.90
24091;DHT22;12272;52.426;17.100;2022-11-18T16:15:14;-0.80;99.90
24091;DHT22;12272;52.426;17.100;2022-11-18T16:20:36;-1.00;99.90
24091;DHT22;12272;52.426;17.100;2022-11-18T16:25:43;-1.10;99.90
24091;DHT22;12272;52.426;17.100;2022-11-18T16:30:49;-1.10;99.90
24091;DHT22;12272;52.426;17.100;2022-11-18T16:36:10;-1.10;99.90
24091;DHT22;12272;52.426;17.100;2022-11-18T16:41:13;-0.90;99.90
24091;DHT22;12272;52.426;17.100;2022-11-18T16:46:36;-0.90;99.90
24091;DHT22;12272;52.426;17.100;2022-11-18T16:51:40;-0.80;99.90
24091;DHT22;12272;52.426;17.100;2022-11-18T16:56:44;-0.70;99.90
24091;DHT22;12272;52.426;17.100;2022-11-18T17:01:47;-0.80;99.90
24091;DHT22;12272;52.426;17.100;2022-11-18T17:06:51;-0.70;99.90
24091;DHT22;12272;52.426;17.100;2022-11-18T17:11:54;-0.70;99.90
24091;DHT22;12272;52.426;17.100;2022-11-18T17:16:57;-0.70;99.90
24091;DHT22;12272;52.426;17.100;2022-11-18T17:22:00;-0.60;99.90
24091;DHT22;12272;52.426;17.100;2022-11-18T17:27:02;-0.60;99.90
24091;DHT22;12272;52.426;17.100;2022-11-18T17:32:05;-0.50;99.90
24091;DHT22;12272;52.426;17.100;2022-11-18T17:37:08;-0.50;99.90
24091;DHT22;12272;52.426;17.100;2022-11-18T17:42:10;-0.50;99.90
24091;DHT22;12272;52.426;17.100;2022-11-18T17:47:16;-0.50;99.90
24091;DHT22;12272;52.426;17.100;2022-11-18T17:52:19;-0.50;99.90
24091;DHT22;12272;52.426;17.100;2022-11-18T17:57:21;-0.50;99.90
24091;DHT22;12272;52.426;17.100;2022-11-18T18:02:24;-0.60;99.90
24091;DHT22;12272;52.426;17.100;2022-11-18T18:07:28;-0.50;99.90
24091;DHT22;12272;52.426;17.100;2022-11-18T18:12:31;-0.60;99.90
24091;DHT22;12272;52.426;17.100;2022-11-18T18:17:52;-0.60;99.90
24091;DHT22;12272;52.426;17.100;2022-11-18T18:22:55;-0.60;99.90
24091;DHT22;12272;52.426;17.100;2022-11-18T18:27:58;-0.70;99.90
24091;DHT22;12272;52.426;17.100;2022-11-18T18:33:00;-0.70;99.90
24091;DHT22;12272;52.426;17.100;2022-11-18T18:38:03;-0.70;99.90
24091;DHT22;12272;52.426;17.100;2022-11-18T18:43:05;-0.70;99.90
24091;DHT22;12272;52.426;17.100;2022-11-18T18:48:08;-0.70;99.90
24091;DHT22;12272;52.426;17.100;2022-11-18T18:53:10;-0.70;99.90
24091;DHT22;12272;52.426;17.100;2022-11-18T18:58:12;-0.80;99.90
24091;DHT22;12272;52.426;17.100;2022-11-18T19:03:15;-0.70;99.90
24091;DHT22;12272;52.426;17.100;2022-11-18T19:08:18;-0.60;99.90
24091;DHT22;12272;52.426;17.100;2022-11-18T19:13:20;-0.70;99.90
24091;DHT22;12272;52.426;17.100;2022-11-18T19:18:22;-0.80;99.90
24091;DHT22;12272;52.426;17.100;2022-11-18T19:23:25;-0.90;99.90
24091;DHT22;12272;52.426;17.100;2022-11-18T19:28:28;-0.90;99.90
24091;DHT22;12272;52.426;17.100;2022-11-18T19:33:30;-1.00;99.90
24091;DHT22;12272;52.426;17.100;2022-11-18T19:38:32;-0.90;99.90
24091;DHT22;12272;52.426;17.100;2022-11-18T19:43:37;-0.90;99.90
24091;DHT22;12272;52.426;17.100;2022-11-18T19:48:39;-0.80;99.90
24091;DHT22;12272;52.426;17.100;2022-11-18T19:53:42;-0.90;99.90
24091;DHT22;12272;52.426;17.100;2022-11-18T19:58:46;-0.80;99.90
24091;DHT22;12272;52.426;17.100;2022-11-18T20:03:53;-0.90;99.90
24091;DHT22;12272;52.426;17.100;2022-11-18T20:08:56;-0.90;99.90
24091;DHT22;12272;52.426;17.100;2022-11-18T20:13:59;-0.90;99.90
24091;DHT22;12272;52.426;17.100;2022-11-18T20:19:03;-0.90;99.90
24091;DHT22;12272;52.426;17.100;2022-11-18T20:24:15;-0.90;99.90
24091;DHT22;12272;52.426;17.100;2022-11-18T20:29:18;-0.90;99.90
24091;DHT22;12272;52.426;17.100;2022-11-18T20:34:21;-0.90;99.90
24091;DHT22;12272;52.426;17.100;2022-11-18T20:39:23;-0.90;99.90
24091;DHT22;12272;52.426;17.100;2022-11-18T20:44:26;-0.90;99.90
24091;DHT22;12272;52.426;17.100;2022-11-18T20:49:28;-0.90;99.90
24091;DHT22;12272;52.426;17.100;2022-11-18T20:54:31;-1.00;99.90
24091;DHT22;12272;52.426;17.100;2022-11-18T20:59:34;-1.00;99.90
24091;DHT22;12272;52.426;17.100;2022-11-18T21:04:37;-1.10;99.90
24091;DHT22;12272;52.426;17.100;2022-11-18T21:09:39;-1.00;99.90
24091;DHT22;12272;52.426;17.100;2022-11-18T21:14:42;-1.20;99.90
24091;DHT22;12272;52.426;17.100;2022-11-18T21:19:44;-1.20;99.90
24091;DHT22;12272;52.426;17.100;2022-11-18T21:24:49;-1.30;99.90
24091;DHT22;12272;52.426;17.100;2022-11-18T21:29:52;-1.40;99.90
24091;DHT22;12272;52.426;17.100;2022-11-18T21:34:54;-1.50;99.90
24091;DHT22;12272;52.426;17.100;2022-11-18T21:39:57;-1.70;99.90
24091;DHT22;12272;52.426;17.100;2022-11-18T21:44:59;-1.80;99.90
24091;DHT22;12272;52.426;17.100;2022-11-18T21:55:05;-2.10;99.90
24091;DHT22;12272;52.426;17.100;2022-11-18T22:00:08;-2.20;99.90
24091;DHT22;12272;52.426;17.100;2022-11-18T22:05:12;-2.40;99.90
24091;DHT22;12272;52.426;17.100;2022-11-18T22:10:16;-2.50;99.90
24091;DHT22;12272;52.426;17.100;2022-11-18T22:15:20;-2.60;99.90
24091;DHT22;12272;52.426;17.100;2022-11-18T22:20:22;-2.60;99.90
24091;DHT22;12272;52.426;17.100;2022-11-18T22:25:25;-2.70;99.90
24091;DHT22;12272;52.426;17.100;2022-11-18T22:30:28;-2.80;99.90
24091;DHT22;12272;52.426;17.100;2022-11-18T22:35:30;-2.90;99.90
24091;DHT22;12272;52.426;17.100;2022-11-18T22:40:33;-2.90;99.90
24091;DHT22;12272;52.426;17.100;2022-11-18T22:45:35;-3.00;99.90
24091;DHT22;12272;52.426;17.100;2022-11-18T22:50:38;-3.10;99.90
24091;DHT22;12272;52.426;17.100;2022-11-18T22:55:43;-3.10;99.90
24091;DHT22;12272;52.426;17.100;2022-11-18T23:00:46;-3.20;99.90
24091;DHT22;12272;52.426;17.100;2022-11-18T23:05:49;-3.30;99.90
24091;DHT22;12272;52.426;17.100;2022-11-18T23:15:58;-3.40;99.90
24091;DHT22;12272;52.426;17.100;2022-11-18T23:21:02;-3.50;99.90
24091;DHT22;12272;52.426;17.100;2022-11-18T23:26:10;-3.50;99.90
24091;DHT22;12272;52.426;17.100;2022-11-18T23:31:23;-3.60;99.90
24091;DHT22;12272;52.426;17.100;2022-11-18T23:36:26;-3.70;99.90
24091;DHT22;12272;52.426;17.100;2022-11-18T23:41:29;-3.80;99.90
24091;DHT22;12272;52.426;17.100;2022-11-18T23:46:32;-3.90;99.90
24091;DHT22;12272;52.426;17.100;2022-11-18T23:51:34;-3.90;99.90
24091;DHT22;12272;52.426;17.100;2022-11-18T23:56:37;-4.00;99.90
